sensor_id;sensor_type;location;lat;lon;timestamp;temperature;humidity
10536;DHT22;5316;49.538;8.352;2022-07-18T00:01:17;20.50;47.40
10536;DHT22;5316;49.538;8.352;2022-07-18T00:03:44;20.40;47.50
10536;DHT22;5316;49.538;8.352;2022-07-18T00:06:10;20.30;47.70
10536;DHT22;5316;49.538;8.352;2022-07-18T00:08:37;20.30;48.00
10536;DHT22;5316;49.538;8.352;2022-07-18T00:11:05;20.30;48.00
10536;DHT22;5316;49.538;8.352;2022-07-18T00:13:32;20.30;48.00
10536;DHT22;5316;49.538;8.352;2022-07-18T00:15:59;20.30;48.10
10536;DHT22;5316;49.538;8.352;2022-07-18T00:18:26;20.30;48.20
10536;DHT22;5316;49.538;8.352;2022-07-18T00:20:52;20.30;48.20
10536;DHT22;5316;49.538;8.352;2022-07-18T00:23:19;20.30;48.40
10536;DHT22;5316;49.538;8.352;2022-07-18T00:25:46;20.30;48.50
10536;DHT22;5316;49.538;8.352;2022-07-18T00:28:14;20.20;48.70
10536;DHT22;5316;49.538;8.352;2022-07-18T00:30:41;20.10;49.10
10536;DHT22;5316;49.538;8.352;2022-07-18T00:33:07;20.00;49.20
10536;DHT22;5316;49.538;8.352;2022-07-18T00:35:34;19.90;49.50
10536;DHT22;5316;49.538;8.352;2022-07-18T00:38:01;19.80;49.80
10536;DHT22;5316;49.538;8.352;2022-07-18T00:40:28;19.80;50.00
10536;DHT22;5316;49.538;8.352;2022-07-18T00:42:55;19.80;50.40
10536;DHT22;5316;49.538;8.352;2022-07-18T00:45:23;19.70;50.50
10536;DHT22;5316;49.538;8.352;2022-07-18T00:47:50;19.70;50.80
10536;DHT22;5316;49.538;8.352;2022-07-18T00:50:18;19.70;50.80
10536;DHT22;5316;49.538;8.352;2022-07-18T00:52:44;19.70;50.80
10536;DHT22;5316;49.538;8.352;2022-07-18T00:55:11;19.70;50.80
10536;DHT22;5316;49.538;8.352;2022-07-18T00:57:40;19.70;50.70
10536;DHT22;5316;49.538;8.352;2022-07-18T01:00:09;19.70;51.00
10536;DHT22;5316;49.538;8.352;2022-07-18T01:02:56;19.60;51.00
10536;DHT22;5316;49.538;8.352;2022-07-18T01:05:23;19.50;51.30
10536;DHT22;5316;49.538;8.352;2022-07-18T01:07:50;19.50;51.40
10536;DHT22;5316;49.538;8.352;2022-07-18T01:10:17;19.50;51.50
10536;DHT22;5316;49.538;8.352;2022-07-18T01:12:44;19.50;51.80
10536;DHT22;5316;49.538;8.352;2022-07-18T01:15:11;19.50;51.80
10536;DHT22;5316;49.538;8.352;2022-07-18T01:17:38;19.40;51.90
10536;DHT22;5316;49.538;8.352;2022-07-18T01:20:08;19.40;52.30
10536;DHT22;5316;49.538;8.352;2022-07-18T01:22:36;19.40;52.50
10536;DHT22;5316;49.538;8.352;2022-07-18T01:25:05;19.30;52.70
10536;DHT22;5316;49.538;8.352;2022-07-18T01:27:32;19.20;52.80
10536;DHT22;5316;49.538;8.352;2022-07-18T01:29:59;19.20;53.10
10536;DHT22;5316;49.538;8.352;2022-07-18T01:32:26;19.20;53.30
10536;DHT22;5316;49.538;8.352;2022-07-18T01:34:53;19.20;53.60
10536;DHT22;5316;49.538;8.352;2022-07-18T01:37:20;19.30;53.50
10536;DHT22;5316;49.538;8.352;2022-07-18T01:39:48;19.30;53.30
10536;DHT22;5316;49.538;8.352;2022-07-18T01:42:15;19.30;53.20
10536;DHT22;5316;49.538;8.352;2022-07-18T01:44:43;19.30;53.20
10536;DHT22;5316;49.538;8.352;2022-07-18T01:47:10;19.20;53.30
10536;DHT22;5316;49.538;8.352;2022-07-18T01:49:38;19.30;53.40
10536;DHT22;5316;49.538;8.352;2022-07-18T01:52:05;19.30;53.30
10536;DHT22;5316;49.538;8.352;2022-07-18T01:54:33;19.30;53.50
10536;DHT22;5316;49.538;8.352;2022-07-18T01:57:04;19.20;53.60
10536;DHT22;5316;49.538;8.352;2022-07-18T01:59:31;19.20;53.90
10536;DHT22;5316;49.538;8.352;2022-07-18T02:01:57;19.10;54.20
10536;DHT22;5316;49.538;8.352;2022-07-18T02:04:24;19.10;54.40
10536;DHT22;5316;49.538;8.352;2022-07-18T02:07:11;19.10;54.50
10536;DHT22;5316;49.538;8.352;2022-07-18T02:09:38;19.10;54.60
10536;DHT22;5316;49.538;8.352;2022-07-18T02:12:06;19.10;55.00
10536;DHT22;5316;49.538;8.352;2022-07-18T02:14:33;19.00;55.30
10536;DHT22;5316;49.538;8.352;2022-07-18T02:17:00;19.00;55.70
10536;DHT22;5316;49.538;8.352;2022-07-18T02:19:27;18.90;56.20
10536;DHT22;5316;49.538;8.352;2022-07-18T02:21:53;18.80;56.80
10536;DHT22;5316;49.538;8.352;2022-07-18T02:24:20;18.70;57.10
10536;DHT22;5316;49.538;8.352;2022-07-18T02:26:47;18.70;57.00
10536;DHT22;5316;49.538;8.352;2022-07-18T02:29:15;18.70;57.20
10536;DHT22;5316;49.538;8.352;2022-07-18T02:31:41;18.60;57.60
10536;DHT22;5316;49.538;8.352;2022-07-18T02:34:08;18.60;57.80
10536;DHT22;5316;49.538;8.352;2022-07-18T02:36:36;18.50;58.00
10536;DHT22;5316;49.538;8.352;2022-07-18T02:39:03;18.40;58.20
10536;DHT22;5316;49.538;8.352;2022-07-18T02:41:30;18.40;58.80
10536;DHT22;5316;49.538;8.352;2022-07-18T02:43:56;18.30;59.10
10536;DHT22;5316;49.538;8.352;2022-07-18T02:46:24;18.30;59.80
10536;DHT22;5316;49.538;8.352;2022-07-18T02:48:51;18.20;60.30
10536;DHT22;5316;49.538;8.352;2022-07-18T02:51:18;18.20;60.50
10536;DHT22;5316;49.538;8.352;2022-07-18T02:53:45;18.20;60.80
10536;DHT22;5316;49.538;8.352;2022-07-18T02:56:12;18.20;61.90
10536;DHT22;5316;49.538;8.352;2022-07-18T02:58:39;18.10;61.80
10536;DHT22;5316;49.538;8.352;2022-07-18T03:01:06;18.10;62.30
10536;DHT22;5316;49.538;8.352;2022-07-18T03:03:34;18.00;63.30
10536;DHT22;5316;49.538;8.352;2022-07-18T03:06:01;18.00;63.60
10536;DHT22;5316;49.538;8.352;2022-07-18T03:08:28;17.90;64.00
10536;DHT22;5316;49.538;8.352;2022-07-18T03:10:55;17.90;64.50
10536;DHT22;5316;49.538;8.352;2022-07-18T03:13:21;17.90;64.80
10536;DHT22;5316;49.538;8.352;2022-07-18T03:15:48;17.80;65.30
10536;DHT22;5316;49.538;8.352;2022-07-18T03:18:15;17.80;66.10
10536;DHT22;5316;49.538;8.352;2022-07-18T03:20:44;17.70;66.70
10536;DHT22;5316;49.538;8.352;2022-07-18T03:23:10;17.70;67.30
10536;DHT22;5316;49.538;8.352;2022-07-18T03:25:37;17.80;67.80
10536;DHT22;5316;49.538;8.352;2022-07-18T03:28:04;17.70;68.30
10536;DHT22;5316;49.538;8.352;2022-07-18T03:30:31;17.60;69.30
10536;DHT22;5316;49.538;8.352;2022-07-18T03:32:57;17.50;70.60
10536;DHT22;5316;49.538;8.352;2022-07-18T03:35:24;17.50;71.10
10536;DHT22;5316;49.538;8.352;2022-07-18T03:37:52;17.60;71.40
10536;DHT22;5316;49.538;8.352;2022-07-18T03:40:19;17.50;71.90
10536;DHT22;5316;49.538;8.352;2022-07-18T03:42:45;17.60;71.90
10536;DHT22;5316;49.538;8.352;2022-07-18T03:45:12;17.60;71.60
10536;DHT22;5316;49.538;8.352;2022-07-18T03:47:39;17.60;71.90
10536;DHT22;5316;49.538;8.352;2022-07-18T03:50:07;17.60;72.40
10536;DHT22;5316;49.538;8.352;2022-07-18T03:52:33;17.60;72.40
10536;DHT22;5316;49.538;8.352;2022-07-18T03:55:02;17.60;73.00
10536;DHT22;5316;49.538;8.352;2022-07-18T03:57:29;17.50;73.10
10536;DHT22;5316;49.538;8.352;2022-07-18T03:59:55;17.50;73.60
10536;DHT22;5316;49.538;8.352;2022-07-18T04:02:22;17.50;74.30
10536;DHT22;5316;49.538;8.352;2022-07-18T04:04:49;17.50;74.30
10536;DHT22;5316;49.538;8.352;2022-07-18T04:07:15;17.40;74.80
10536;DHT22;5316;49.538;8.352;2022-07-18T04:09:42;17.50;75.10
10536;DHT22;5316;49.538;8.352;2022-07-18T04:12:10;17.40;75.70
10536;DHT22;5316;49.538;8.352;2022-07-18T04:14:37;17.30;76.70
10536;DHT22;5316;49.538;8.352;2022-07-18T04:17:03;17.30;77.00
10536;DHT22;5316;49.538;8.352;2022-07-18T04:19:30;17.30;77.50
10536;DHT22;5316;49.538;8.352;2022-07-18T04:21:57;17.20;78.30
10536;DHT22;5316;49.538;8.352;2022-07-18T04:24:23;17.20;78.30
10536;DHT22;5316;49.538;8.352;2022-07-18T04:26:51;17.30;78.60
10536;DHT22;5316;49.538;8.352;2022-07-18T04:29:19;17.30;78.60
10536;DHT22;5316;49.538;8.352;2022-07-18T04:31:46;17.30;79.00
10536;DHT22;5316;49.538;8.352;2022-07-18T04:34:12;17.30;79.10
10536;DHT22;5316;49.538;8.352;2022-07-18T04:36:39;17.30;79.30
10536;DHT22;5316;49.538;8.352;2022-07-18T04:39:06;17.30;79.30
10536;DHT22;5316;49.538;8.352;2022-07-18T04:41:33;17.40;79.70
10536;DHT22;5316;49.538;8.352;2022-07-18T04:43:59;17.40;80.10
10536;DHT22;5316;49.538;8.352;2022-07-18T04:46:28;17.50;80.00
10536;DHT22;5316;49.538;8.352;2022-07-18T04:48:54;17.50;80.00
10536;DHT22;5316;49.538;8.352;2022-07-18T04:51:21;17.50;79.80
10536;DHT22;5316;49.538;8.352;2022-07-18T04:53:47;17.50;79.80
10536;DHT22;5316;49.538;8.352;2022-07-18T04:56:14;17.60;79.60
10536;DHT22;5316;49.538;8.352;2022-07-18T04:58:41;17.60;79.50
10536;DHT22;5316;49.538;8.352;2022-07-18T05:01:08;17.70;78.70
10536;DHT22;5316;49.538;8.352;2022-07-18T05:03:36;17.80;79.00
10536;DHT22;5316;49.538;8.352;2022-07-18T05:06:02;17.80;78.70
10536;DHT22;5316;49.538;8.352;2022-07-18T05:08:29;17.90;78.70
10536;DHT22;5316;49.538;8.352;2022-07-18T05:10:56;18.00;78.40
10536;DHT22;5316;49.538;8.352;2022-07-18T05:13:23;18.10;77.70
10536;DHT22;5316;49.538;8.352;2022-07-18T05:15:49;18.10;77.40
10536;DHT22;5316;49.538;8.352;2022-07-18T05:18:16;18.30;77.50
10536;DHT22;5316;49.538;8.352;2022-07-18T05:20:44;18.40;76.70
10536;DHT22;5316;49.538;8.352;2022-07-18T05:23:13;18.40;75.30
10536;DHT22;5316;49.538;8.352;2022-07-18T05:25:41;18.50;75.70
10536;DHT22;5316;49.538;8.352;2022-07-18T05:28:07;18.60;75.40
10536;DHT22;5316;49.538;8.352;2022-07-18T05:30:34;18.60;74.60
10536;DHT22;5316;49.538;8.352;2022-07-18T05:33:01;18.70;75.20
10536;DHT22;5316;49.538;8.352;2022-07-18T05:35:28;18.70;74.50
10536;DHT22;5316;49.538;8.352;2022-07-18T05:37:56;18.80;74.20
10536;DHT22;5316;49.538;8.352;2022-07-18T05:40:22;18.90;74.40
10536;DHT22;5316;49.538;8.352;2022-07-18T05:42:49;19.00;73.70
10536;DHT22;5316;49.538;8.352;2022-07-18T05:45:16;19.00;73.70
10536;DHT22;5316;49.538;8.352;2022-07-18T05:47:42;19.00;73.80
10536;DHT22;5316;49.538;8.352;2022-07-18T05:50:09;19.10;73.60
10536;DHT22;5316;49.538;8.352;2022-07-18T05:52:36;19.20;73.70
10536;DHT22;5316;49.538;8.352;2022-07-18T05:55:06;19.30;73.20
10536;DHT22;5316;49.538;8.352;2022-07-18T05:57:33;19.30;72.80
10536;DHT22;5316;49.538;8.352;2022-07-18T06:00:00;19.40;73.00
10536;DHT22;5316;49.538;8.352;2022-07-18T06:02:27;19.50;73.10
10536;DHT22;5316;49.538;8.352;2022-07-18T06:04:53;19.60;73.80
10536;DHT22;5316;49.538;8.352;2022-07-18T06:07:20;19.60;72.40
10536;DHT22;5316;49.538;8.352;2022-07-18T06:09:47;19.60;72.30
10536;DHT22;5316;49.538;8.352;2022-07-18T06:12:16;19.70;72.80
10536;DHT22;5316;49.538;8.352;2022-07-18T06:14:43;19.80;73.00
10536;DHT22;5316;49.538;8.352;2022-07-18T06:17:09;19.80;72.60
10536;DHT22;5316;49.538;8.352;2022-07-18T06:19:36;19.90;72.70
10536;DHT22;5316;49.538;8.352;2022-07-18T06:22:28;21.20;73.40
10536;DHT22;5316;49.538;8.352;2022-07-18T06:31:04;20.30;72.40
10536;DHT22;5316;49.538;8.352;2022-07-18T06:33:31;20.30;72.30
10536;DHT22;5316;49.538;8.352;2022-07-18T06:35:58;22.10;74.20
10536;DHT22;5316;49.538;8.352;2022-07-18T06:38:25;19.50;71.70
10536;DHT22;5316;49.538;8.352;2022-07-18T06:40:52;20.50;72.70
10536;DHT22;5316;49.538;8.352;2022-07-18T06:43:20;20.60;72.30
10536;DHT22;5316;49.538;8.352;2022-07-18T06:45:47;20.70;72.40
10536;DHT22;5316;49.538;8.352;2022-07-18T06:48:14;20.80;70.50
10536;DHT22;5316;49.538;8.352;2022-07-18T06:50:42;20.90;69.70
10536;DHT22;5316;49.538;8.352;2022-07-18T06:53:08;21.00;68.90
10536;DHT22;5316;49.538;8.352;2022-07-18T06:55:35;21.20;70.10
10536;DHT22;5316;49.538;8.352;2022-07-18T06:58:02;21.30;68.60
10536;DHT22;5316;49.538;8.352;2022-07-18T07:00:30;21.30;68.30
10536;DHT22;5316;49.538;8.352;2022-07-18T07:02:57;21.40;68.00
10536;DHT22;5316;49.538;8.352;2022-07-18T07:05:24;21.50;68.70
10536;DHT22;5316;49.538;8.352;2022-07-18T07:07:51;21.70;69.90
10536;DHT22;5316;49.538;8.352;2022-07-18T07:10:18;21.80;69.20
10536;DHT22;5316;49.538;8.352;2022-07-18T07:12:47;21.80;68.20
10536;DHT22;5316;49.538;8.352;2022-07-18T07:15:15;21.90;67.80
10536;DHT22;5316;49.538;8.352;2022-07-18T07:17:44;22.00;66.80
10536;DHT22;5316;49.538;8.352;2022-07-18T07:20:11;22.10;66.60
10536;DHT22;5316;49.538;8.352;2022-07-18T07:22:43;22.20;65.70
10536;DHT22;5316;49.538;8.352;2022-07-18T07:25:10;22.30;66.90
10536;DHT22;5316;49.538;8.352;2022-07-18T07:27:37;22.40;65.30
10536;DHT22;5316;49.538;8.352;2022-07-18T07:30:05;22.40;64.70
10536;DHT22;5316;49.538;8.352;2022-07-18T07:32:34;22.50;65.40
10536;DHT22;5316;49.538;8.352;2022-07-18T07:35:03;22.60;64.60
10536;DHT22;5316;49.538;8.352;2022-07-18T07:37:31;22.60;65.20
10536;DHT22;5316;49.538;8.352;2022-07-18T07:39:58;22.70;64.50
10536;DHT22;5316;49.538;8.352;2022-07-18T07:42:25;22.80;63.70
10536;DHT22;5316;49.538;8.352;2022-07-18T07:44:52;22.80;64.60
10536;DHT22;5316;49.538;8.352;2022-07-18T07:47:18;22.90;64.30
10536;DHT22;5316;49.538;8.352;2022-07-18T07:49:45;23.00;64.70
10536;DHT22;5316;49.538;8.352;2022-07-18T07:52:14;23.10;64.80
10536;DHT22;5316;49.538;8.352;2022-07-18T07:54:43;23.20;63.90
10536;DHT22;5316;49.538;8.352;2022-07-18T07:57:10;23.30;62.50
10536;DHT22;5316;49.538;8.352;2022-07-18T07:59:37;23.30;62.30
10536;DHT22;5316;49.538;8.352;2022-07-18T08:02:04;23.40;63.20
10536;DHT22;5316;49.538;8.352;2022-07-18T08:04:30;23.50;62.90
10536;DHT22;5316;49.538;8.352;2022-07-18T08:06:57;23.60;62.30
10536;DHT22;5316;49.538;8.352;2022-07-18T08:09:25;23.70;62.40
10536;DHT22;5316;49.538;8.352;2022-07-18T08:11:52;23.80;62.20
10536;DHT22;5316;49.538;8.352;2022-07-18T08:14:19;23.80;62.20
10536;DHT22;5316;49.538;8.352;2022-07-18T08:16:45;23.90;61.90
10536;DHT22;5316;49.538;8.352;2022-07-18T08:19:12;24.00;61.70
10536;DHT22;5316;49.538;8.352;2022-07-18T08:21:39;24.00;61.60
10536;DHT22;5316;49.538;8.352;2022-07-18T08:24:05;24.10;60.30
10536;DHT22;5316;49.538;8.352;2022-07-18T08:26:34;24.20;59.20
10536;DHT22;5316;49.538;8.352;2022-07-18T08:29:04;24.30;59.20
10536;DHT22;5316;49.538;8.352;2022-07-18T08:31:31;24.30;60.00
10536;DHT22;5316;49.538;8.352;2022-07-18T08:33:58;24.40;58.50
10536;DHT22;5316;49.538;8.352;2022-07-18T08:36:25;24.40;57.40
10536;DHT22;5316;49.538;8.352;2022-07-18T08:38:51;24.50;60.10
10536;DHT22;5316;49.538;8.352;2022-07-18T08:41:18;24.60;60.20
10536;DHT22;5316;49.538;8.352;2022-07-18T08:43:50;24.70;60.00
10536;DHT22;5316;49.538;8.352;2022-07-18T08:46:19;24.80;59.30
10536;DHT22;5316;49.538;8.352;2022-07-18T08:48:47;24.90;59.10
10536;DHT22;5316;49.538;8.352;2022-07-18T08:51:14;25.00;58.80
10536;DHT22;5316;49.538;8.352;2022-07-18T08:53:41;25.10;57.60
10536;DHT22;5316;49.538;8.352;2022-07-18T08:56:08;25.10;56.80
10536;DHT22;5316;49.538;8.352;2022-07-18T08:58:34;25.20;56.80
10536;DHT22;5316;49.538;8.352;2022-07-18T09:01:02;25.20;56.50
10536;DHT22;5316;49.538;8.352;2022-07-18T09:03:29;25.30;55.50
10536;DHT22;5316;49.538;8.352;2022-07-18T09:06:06;25.40;56.00
10536;DHT22;5316;49.538;8.352;2022-07-18T09:08:33;25.50;55.20
10536;DHT22;5316;49.538;8.352;2022-07-18T09:11:03;25.50;55.40
10536;DHT22;5316;49.538;8.352;2022-07-18T09:13:36;25.60;55.80
10536;DHT22;5316;49.538;8.352;2022-07-18T09:16:07;25.80;55.30
10536;DHT22;5316;49.538;8.352;2022-07-18T09:18:36;26.00;55.00
10536;DHT22;5316;49.538;8.352;2022-07-18T09:21:05;26.10;55.20
10536;DHT22;5316;49.538;8.352;2022-07-18T09:23:34;26.10;53.40
10536;DHT22;5316;49.538;8.352;2022-07-18T09:26:01;26.20;53.80
10536;DHT22;5316;49.538;8.352;2022-07-18T09:28:29;26.20;54.20
10536;DHT22;5316;49.538;8.352;2022-07-18T09:30:56;26.40;53.30
10536;DHT22;5316;49.538;8.352;2022-07-18T09:33:26;26.50;52.90
10536;DHT22;5316;49.538;8.352;2022-07-18T09:35:53;26.60;51.90
10536;DHT22;5316;49.538;8.352;2022-07-18T09:38:21;26.70;51.70
10536;DHT22;5316;49.538;8.352;2022-07-18T09:40:50;26.70;51.40
10536;DHT22;5316;49.538;8.352;2022-07-18T09:43:18;26.90;50.70
10536;DHT22;5316;49.538;8.352;2022-07-18T09:45:47;27.10;49.90
10536;DHT22;5316;49.538;8.352;2022-07-18T09:48:15;27.10;50.00
10536;DHT22;5316;49.538;8.352;2022-07-18T09:50:50;27.20;48.40
10536;DHT22;5316;49.538;8.352;2022-07-18T09:53:19;27.30;48.00
10536;DHT22;5316;49.538;8.352;2022-07-18T09:55:52;27.30;48.00
10536;DHT22;5316;49.538;8.352;2022-07-18T09:58:20;27.40;47.70
10536;DHT22;5316;49.538;8.352;2022-07-18T10:00:48;27.40;47.20
10536;DHT22;5316;49.538;8.352;2022-07-18T10:03:16;27.50;46.90
10536;DHT22;5316;49.538;8.352;2022-07-18T10:05:45;27.50;42.90
10536;DHT22;5316;49.538;8.352;2022-07-18T10:08:14;27.60;42.90
10536;DHT22;5316;49.538;8.352;2022-07-18T10:10:43;27.70;42.00
10536;DHT22;5316;49.538;8.352;2022-07-18T10:13:10;27.70;41.40
10536;DHT22;5316;49.538;8.352;2022-07-18T10:15:38;27.80;41.20
10536;DHT22;5316;49.538;8.352;2022-07-18T10:18:07;27.80;40.80
10536;DHT22;5316;49.538;8.352;2022-07-18T10:20:36;27.90;41.90
10536;DHT22;5316;49.538;8.352;2022-07-18T10:23:11;28.10;41.00
10536;DHT22;5316;49.538;8.352;2022-07-18T10:25:39;28.10;40.30
10536;DHT22;5316;49.538;8.352;2022-07-18T10:28:09;28.30;40.50
10536;DHT22;5316;49.538;8.352;2022-07-18T10:30:43;28.40;39.50
10536;DHT22;5316;49.538;8.352;2022-07-18T10:33:37;28.40;37.90
10536;DHT22;5316;49.538;8.352;2022-07-18T10:36:06;28.40;38.30
10536;DHT22;5316;49.538;8.352;2022-07-18T10:38:35;28.50;38.50
10536;DHT22;5316;49.538;8.352;2022-07-18T10:41:10;28.60;37.70
10536;DHT22;5316;49.538;8.352;2022-07-18T10:43:42;28.60;37.80
10536;DHT22;5316;49.538;8.352;2022-07-18T10:46:11;28.70;37.80
10536;DHT22;5316;49.538;8.352;2022-07-18T10:48:54;28.90;37.70
10536;DHT22;5316;49.538;8.352;2022-07-18T10:51:29;29.00;37.70
10536;DHT22;5316;49.538;8.352;2022-07-18T10:54:04;29.20;36.80
10536;DHT22;5316;49.538;8.352;2022-07-18T10:57:06;29.30;37.20
10536;DHT22;5316;49.538;8.352;2022-07-18T11:00:01;29.40;36.30
10536;DHT22;5316;49.538;8.352;2022-07-18T11:02:32;29.40;35.60
10536;DHT22;5316;49.538;8.352;2022-07-18T11:04:59;29.40;34.80
10536;DHT22;5316;49.538;8.352;2022-07-18T11:07:26;29.40;34.60
10536;DHT22;5316;49.538;8.352;2022-07-18T11:09:54;29.30;35.20
10536;DHT22;5316;49.538;8.352;2022-07-18T11:12:26;29.20;35.50
10536;DHT22;5316;49.538;8.352;2022-07-18T11:15:07;29.30;35.10
10536;DHT22;5316;49.538;8.352;2022-07-18T11:17:55;29.40;35.30
10536;DHT22;5316;49.538;8.352;2022-07-18T11:20:26;29.50;36.50
10536;DHT22;5316;49.538;8.352;2022-07-18T11:22:53;29.60;35.60
10536;DHT22;5316;49.538;8.352;2022-07-18T11:25:24;29.80;35.50
10536;DHT22;5316;49.538;8.352;2022-07-18T11:27:51;29.80;34.40
10536;DHT22;5316;49.538;8.352;2022-07-18T11:30:20;29.90;34.80
10536;DHT22;5316;49.538;8.352;2022-07-18T11:32:47;29.90;33.70
10536;DHT22;5316;49.538;8.352;2022-07-18T11:35:14;29.90;34.50
10536;DHT22;5316;49.538;8.352;2022-07-18T11:37:47;29.80;33.90
10536;DHT22;5316;49.538;8.352;2022-07-18T11:40:15;29.80;33.50
10536;DHT22;5316;49.538;8.352;2022-07-18T11:42:43;29.80;33.50
10536;DHT22;5316;49.538;8.352;2022-07-18T11:45:12;29.90;33.90
10536;DHT22;5316;49.538;8.352;2022-07-18T11:47:39;30.00;34.40
10536;DHT22;5316;49.538;8.352;2022-07-18T11:50:07;30.10;33.20
10536;DHT22;5316;49.538;8.352;2022-07-18T11:52:34;30.30;33.40
10536;DHT22;5316;49.538;8.352;2022-07-18T11:55:00;30.40;32.60
10536;DHT22;5316;49.538;8.352;2022-07-18T11:57:30;30.50;31.90
10536;DHT22;5316;49.538;8.352;2022-07-18T12:00:00;30.60;32.00
10536;DHT22;5316;49.538;8.352;2022-07-18T12:02:27;30.60;31.70
10536;DHT22;5316;49.538;8.352;2022-07-18T12:04:54;30.60;32.10
10536;DHT22;5316;49.538;8.352;2022-07-18T12:07:24;30.60;32.60
10536;DHT22;5316;49.538;8.352;2022-07-18T12:09:51;30.80;33.80
10536;DHT22;5316;49.538;8.352;2022-07-18T12:12:20;30.90;33.00
10536;DHT22;5316;49.538;8.352;2022-07-18T12:14:59;30.90;31.90
10536;DHT22;5316;49.538;8.352;2022-07-18T12:17:29;30.90;32.70
10536;DHT22;5316;49.538;8.352;2022-07-18T12:20:09;30.90;32.60
10536;DHT22;5316;49.538;8.352;2022-07-18T12:22:37;31.00;31.90
10536;DHT22;5316;49.538;8.352;2022-07-18T12:25:04;31.10;32.00
10536;DHT22;5316;49.538;8.352;2022-07-18T12:27:35;31.20;32.50
10536;DHT22;5316;49.538;8.352;2022-07-18T12:30:07;31.30;31.60
10536;DHT22;5316;49.538;8.352;2022-07-18T12:32:40;31.30;31.80
10536;DHT22;5316;49.538;8.352;2022-07-18T12:35:09;31.40;31.80
10536;DHT22;5316;49.538;8.352;2022-07-18T12:37:36;31.50;31.00
10536;DHT22;5316;49.538;8.352;2022-07-18T12:40:06;31.50;30.10
10536;DHT22;5316;49.538;8.352;2022-07-18T12:42:35;31.40;30.20
10536;DHT22;5316;49.538;8.352;2022-07-18T12:45:05;31.50;30.10
10536;DHT22;5316;49.538;8.352;2022-07-18T12:47:33;31.60;30.00
10536;DHT22;5316;49.538;8.352;2022-07-18T12:50:00;31.70;29.90
10536;DHT22;5316;49.538;8.352;2022-07-18T12:52:27;31.80;30.10
10536;DHT22;5316;49.538;8.352;2022-07-18T12:54:53;31.90;29.80
10536;DHT22;5316;49.538;8.352;2022-07-18T12:57:20;32.00;29.80
10536;DHT22;5316;49.538;8.352;2022-07-18T12:59:49;32.10;29.70
10536;DHT22;5316;49.538;8.352;2022-07-18T13:02:17;32.30;29.60
10536;DHT22;5316;49.538;8.352;2022-07-18T13:04:45;32.60;29.30
10536;DHT22;5316;49.538;8.352;2022-07-18T13:07:12;32.80;29.00
10536;DHT22;5316;49.538;8.352;2022-07-18T13:09:38;33.00;29.50
10536;DHT22;5316;49.538;8.352;2022-07-18T13:12:05;33.30;28.90
10536;DHT22;5316;49.538;8.352;2022-07-18T13:14:33;33.60;29.20
10536;DHT22;5316;49.538;8.352;2022-07-18T13:16:59;33.70;28.10
10536;DHT22;5316;49.538;8.352;2022-07-18T13:19:28;33.90;28.20
10536;DHT22;5316;49.538;8.352;2022-07-18T13:21:57;34.00;27.80
10536;DHT22;5316;49.538;8.352;2022-07-18T13:24:23;34.20;27.90
10536;DHT22;5316;49.538;8.352;2022-07-18T13:26:50;34.40;27.60
10536;DHT22;5316;49.538;8.352;2022-07-18T13:29:17;34.50;27.40
10536;DHT22;5316;49.538;8.352;2022-07-18T13:31:45;34.60;27.60
10536;DHT22;5316;49.538;8.352;2022-07-18T13:36:42;35.00;27.10
10536;DHT22;5316;49.538;8.352;2022-07-18T13:39:09;35.10;26.90
10536;DHT22;5316;49.538;8.352;2022-07-18T13:41:36;35.00;27.00
10536;DHT22;5316;49.538;8.352;2022-07-18T13:44:03;35.30;26.60
10536;DHT22;5316;49.538;8.352;2022-07-18T13:46:30;35.60;26.90
10536;DHT22;5316;49.538;8.352;2022-07-18T13:48:56;35.90;26.50
10536;DHT22;5316;49.538;8.352;2022-07-18T13:51:23;36.10;26.50
10536;DHT22;5316;49.538;8.352;2022-07-18T13:53:52;36.40;26.50
10536;DHT22;5316;49.538;8.352;2022-07-18T13:56:19;36.80;26.10
10536;DHT22;5316;49.538;8.352;2022-07-18T13:58:45;36.90;25.50
10536;DHT22;5316;49.538;8.352;2022-07-18T14:01:13;37.00;25.50
10536;DHT22;5316;49.538;8.352;2022-07-18T14:03:39;37.10;25.20
10536;DHT22;5316;49.538;8.352;2022-07-18T14:06:06;37.40;25.10
10536;DHT22;5316;49.538;8.352;2022-07-18T14:08:33;37.80;25.00
10536;DHT22;5316;49.538;8.352;2022-07-18T14:11:01;38.40;25.30
10536;DHT22;5316;49.538;8.352;2022-07-18T14:13:28;38.80;24.80
10536;DHT22;5316;49.538;8.352;2022-07-18T14:15:54;39.10;23.80
10536;DHT22;5316;49.538;8.352;2022-07-18T14:18:21;39.50;23.70
10536;DHT22;5316;49.538;8.352;2022-07-18T14:20:48;39.80;23.50
10536;DHT22;5316;49.538;8.352;2022-07-18T14:23:15;40.30;23.80
10536;DHT22;5316;49.538;8.352;2022-07-18T14:25:41;40.70;23.30
10536;DHT22;5316;49.538;8.352;2022-07-18T14:28:09;40.90;22.40
10536;DHT22;5316;49.538;8.352;2022-07-18T14:30:37;41.30;22.60
10536;DHT22;5316;49.538;8.352;2022-07-18T14:33:04;41.20;21.70
10536;DHT22;5316;49.538;8.352;2022-07-18T14:35:31;41.20;22.20
10536;DHT22;5316;49.538;8.352;2022-07-18T14:37:58;41.10;21.60
10536;DHT22;5316;49.538;8.352;2022-07-18T14:40:25;40.40;21.70
10536;DHT22;5316;49.538;8.352;2022-07-18T14:42:51;39.90;21.80
10536;DHT22;5316;49.538;8.352;2022-07-18T14:45:19;39.60;22.10
10536;DHT22;5316;49.538;8.352;2022-07-18T14:47:46;39.50;22.50
10536;DHT22;5316;49.538;8.352;2022-07-18T14:50:13;39.10;22.20
10536;DHT22;5316;49.538;8.352;2022-07-18T14:52:40;39.10;22.20
10536;DHT22;5316;49.538;8.352;2022-07-18T14:55:08;39.50;22.00
10536;DHT22;5316;49.538;8.352;2022-07-18T14:57:36;39.40;22.00
10536;DHT22;5316;49.538;8.352;2022-07-18T15:00:05;40.10;22.10
10536;DHT22;5316;49.538;8.352;2022-07-18T15:02:34;40.50;21.30
10536;DHT22;5316;49.538;8.352;2022-07-18T15:05:01;41.10;21.40
10536;DHT22;5316;49.538;8.352;2022-07-18T15:07:27;41.50;20.50
10536;DHT22;5316;49.538;8.352;2022-07-18T15:09:54;42.50;20.60
10536;DHT22;5316;49.538;8.352;2022-07-18T15:12:21;43.10;21.00
10536;DHT22;5316;49.538;8.352;2022-07-18T15:14:48;43.20;20.00
10536;DHT22;5316;49.538;8.352;2022-07-18T15:17:15;43.20;19.60
10536;DHT22;5316;49.538;8.352;2022-07-18T15:19:43;42.50;19.90
10536;DHT22;5316;49.538;8.352;2022-07-18T15:22:10;42.40;20.00
10536;DHT22;5316;49.538;8.352;2022-07-18T15:24:37;42.40;19.80
10536;DHT22;5316;49.538;8.352;2022-07-18T15:27:04;42.10;20.10
10536;DHT22;5316;49.538;8.352;2022-07-18T15:29:31;42.30;20.30
10536;DHT22;5316;49.538;8.352;2022-07-18T15:31:58;42.10;20.00
10536;DHT22;5316;49.538;8.352;2022-07-18T15:34:25;42.30;20.10
10536;DHT22;5316;49.538;8.352;2022-07-18T15:36:53;42.60;20.60
10536;DHT22;5316;49.538;8.352;2022-07-18T15:39:20;43.20;20.80
10536;DHT22;5316;49.538;8.352;2022-07-18T15:41:47;43.70;19.40
10536;DHT22;5316;49.538;8.352;2022-07-18T15:44:14;43.00;19.60
10536;DHT22;5316;49.538;8.352;2022-07-18T15:46:41;43.20;20.00
10536;DHT22;5316;49.538;8.352;2022-07-18T15:49:07;43.20;19.60
10536;DHT22;5316;49.538;8.352;2022-07-18T15:51:35;42.70;19.60
10536;DHT22;5316;49.538;8.352;2022-07-18T15:54:04;42.30;20.30
10536;DHT22;5316;49.538;8.352;2022-07-18T15:56:31;42.10;19.70
10536;DHT22;5316;49.538;8.352;2022-07-18T15:58:58;41.90;20.00